Adventure of The Seas — C6SA3 — position and weather

sailwx.info

Track history (hours):
 
Tides and Currents Weather Stations Pressure Air Temp Water Temp Dewpoint Dewpoint Depression Visibility Wind Speed Wind Dir Waves Ship Positions

Adventure of The Seas

Operator: Royal Caribbean Cruises Ltd

Last reported at 2020-Apr-06 15:30 UTC. Time now 2020-Apr-06 18:18 UTC.
Position N 26°07' W 080°05'.

Type: Passenger vessel. MMSI: 311263000.

Date/timePositionNaut miles runAvg speedWind from/ knotsBaromVisibWave heightAir tempDewpointWater temp
2020-Apr-06 15:30N 26°07' W 080°05'0 0.0
2020-Apr-06 14:00N 26°07' W 080°05'0 0.0
2020-Apr-06 12:00N 26°07' W 080°05'0 0.0
2020-Apr-06 09:30N 26°07' W 080°05'0 0.0
2020-Apr-06 07:00N 26°07' W 080°05'0 0.1
2020-Apr-06 06:00N 26°07' W 080°05'0 0.1
2020-Apr-06 05:00N 26°07' W 080°05'0 0.0
2020-Apr-06 04:30N 26°07' W 080°05'0 0.0
2020-Apr-06 03:30N 26°07' W 080°05'0 0.0
2020-Apr-06 03:00N 26°07' W 080°05'0 0.0
2020-Apr-06 02:30N 26°07' W 080°05'0 0.0
2020-Apr-06 01:00N 26°07' W 080°05'3 0.6
2020-Apr-05 19:59N 26°05' W 080°07'0 0.0
2020-Apr-05 18:29N 26°05' W 080°07'0 0.0
2020-Apr-05 15:58N 26°05' W 080°07'0 0.0
2020-Apr-05 14:55N 26°05' W 080°07'0 0.0
2020-Apr-05 14:28N 26°05' W 080°07'0 0.0
2020-Apr-05 13:58N 26°05' W 080°07'0 0.0
2020-Apr-05 13:28N 26°05' W 080°07'0 0.0
2020-Apr-05 12:58N 26°05' W 080°07'3 1.6
2020-Apr-05 11:00N 26°06' W 080°04'1 0.5
2020-Apr-05 07:58N 26°07' W 080°05'0 0.0
2020-Apr-05 07:28N 26°07' W 080°05'0 0.0
2020-Apr-05 06:58N 26°07' W 080°05'0 0.0
2020-Apr-05 06:28N 26°07' W 080°05'0 0.0
2020-Apr-05 01:28N 26°07' W 080°05'0 0.0
2020-Apr-04 23:28N 26°07' W 080°05'0 0.1
2020-Apr-04 21:58N 26°07' W 080°05'0 0.0
2020-Apr-04 21:28N 26°07' W 080°05'0 0.0
2020-Apr-04 19:58N 26°07' W 080°05'0 0.0
2020-Apr-04 19:28N 26°07' W 080°05'0 0.0
2020-Apr-04 16:58N 26°07' W 080°05'0 0.0
2020-Apr-04 15:58N 26°07' W 080°05'0 0.0
2020-Apr-04 14:58N 26°07' W 080°05'0 0.0
2020-Apr-04 14:28N 26°07' W 080°05'0 0.0
2020-Apr-04 13:58N 26°07' W 080°05'0 0.0
2020-Apr-04 13:28N 26°07' W 080°05'0 0.0
2020-Apr-04 11:28N 26°07' W 080°05'0 0.0
2020-Apr-04 10:58N 26°07' W 080°05'0 0.0
2020-Apr-04 10:28N 26°07' W 080°05'0 0.0
2020-Apr-04 09:58N 26°07' W 080°05'0 0.0
2020-Apr-04 07:28N 26°07' W 080°05'0 0.0
2020-Apr-04 03:58N 26°07' W 080°05'0 0.0
2020-Apr-04 02:58N 26°07' W 080°05'0 0.0
2020-Apr-04 02:25N 26°07' W 080°05'0 0.0
2020-Apr-04 00:58N 26°07' W 080°05'0 0.0
2020-Apr-03 22:28N 26°07' W 080°05'0 0.0
2020-Apr-03 21:58N 26°07' W 080°05'0 0.0
2020-Apr-03 21:28N 26°07' W 080°05'0 0.0
2020-Apr-03 20:28N 26°07' W 080°05'0 0.0
2020-Apr-03 19:28N 26°07' W 080°05'0 0.0
2020-Apr-03 16:28N 26°07' W 080°05'0 0.0
2020-Apr-03 15:58N 26°07' W 080°05'0 0.0
2020-Apr-03 15:28N 26°07' W 080°05'0 0.0
2020-Apr-03 12:58N 26°07' W 080°05'0 0.0
2020-Apr-03 10:58N 26°07' W 080°05'0 0.0
2020-Apr-03 09:58N 26°07' W 080°05'0 0.0
2020-Apr-03 07:58N 26°07' W 080°05'0 0.0
2020-Apr-03 07:28N 26°07' W 080°05'0 0.0
2020-Apr-03 05:55N 26°07' W 080°05'0 0.0
2020-Apr-03 05:28N 26°07' W 080°05'0 0.0
2020-Apr-03 04:58N 26°07' W 080°05'0 0.0
2020-Apr-03 03:58N 26°07' W 080°05'0 0.0
2020-Apr-03 03:28N 26°07' W 080°05'0 0.0
2020-Apr-03 02:28N 26°07' W 080°05'1 0.2
2020-Apr-02 21:30N 26°08' W 080°05'1 1.0
2020-Apr-02 20:57N 26°08' W 080°04'0 0.0
2020-Apr-02 19:30N 26°08' W 080°04'0 0.0
2020-Apr-02 19:00N 26°08' W 080°04'0 0.0
2020-Apr-02 18:30N 26°08' W 080°04'0 0.0
2020-Apr-02 15:30N 26°08' W 080°04'0 0.0
2020-Apr-02 13:30N 26°08' W 080°04'0 0.0
2020-Apr-02 12:00N 26°08' W 080°04'0 0.0
2020-Apr-02 11:00N 26°08' W 080°04'0 0.0
2020-Apr-02 10:30N 26°08' W 080°04'0 0.0
2020-Apr-02 09:30N 26°08' W 080°04'0 0.0
2020-Apr-02 08:00N 26°08' W 080°04'0 0.0
2020-Apr-02 07:30N 26°08' W 080°04'0 0.0
2020-Apr-02 05:30N 26°08' W 080°04'0 0.0
2020-Apr-02 02:30N 26°08' W 080°04'0 0.0
2020-Apr-02 02:00N 26°08' W 080°04'0 0.0
2020-Apr-01 23:00N 26°08' W 080°04'0 0.0
2020-Apr-01 22:30N 26°08' W 080°04'0 0.0
2020-Apr-01 21:27N 26°08' W 080°04'0 0.1
2020-Apr-01 21:00N 26°08' W 080°04'2 0.9
2020-Apr-01 18:30N 26°08' W 080°02'3 6.1
2020-Apr-01 18:00N 26°09' W 079°59'1 1.3
2020-Apr-01 17:00N 26°08' W 079°57'1 1.1
2020-Apr-01 16:30N 26°08' W 079°57'14 2.3
2020-Apr-01 10:30N 26°12' W 079°42'15 5.8
2020-Apr-01 07:53N 26°26' W 079°35'610.0
2020-Apr-01 07:15N 26°20' W 079°35'22 2.4
2020-Mar-31 22:00N 26°07' W 079°54'8 8.3
2020-Mar-31 21:01N 26°07' W 080°04'1 1.6
2020-Mar-31 20:28N 26°07' W 080°05'0 0.0
2020-Mar-31 17:58N 26°07' W 080°05'0 0.0
2020-Mar-31 16:28N 26°07' W 080°05'0 0.1
2020-Mar-31 15:58N 26°07' W 080°05'0 0.0
2020-Mar-31 11:28N 26°07' W 080°05'0 0.0
2020-Mar-31 10:58N 26°07' W 080°04'0 0.0
2020-Mar-31 09:55N 26°07' W 080°05'0 0.1
2020-Mar-31 09:28N 26°07' W 080°05'0 0.0
2020-Mar-31 08:28N 26°07' W 080°05'0 0.0
2020-Mar-31 07:28N 26°07' W 080°05'0 0.0
2020-Mar-31 06:28N 26°07' W 080°05'0 0.0
2020-Mar-31 04:58N 26°07' W 080°05'0 0.0
2020-Mar-31 04:28N 26°07' W 080°05'0 0.0
2020-Mar-31 03:28N 26°07' W 080°05'0 0.0
2020-Mar-31 00:58N 26°07' W 080°05'0 0.0
2020-Mar-30 23:28N 26°07' W 080°05'0 0.0
2020-Mar-30 21:28N 26°07' W 080°04'0 0.1
2020-Mar-30 20:58N 26°07' W 080°05'0 0.0
2020-Mar-30 17:28N 26°07' W 080°05'0 0.0
2020-Mar-30 16:25N 26°07' W 080°05'0 0.0
2020-Mar-30 14:28N 26°07' W 080°05'0 0.0
2020-Mar-30 13:58N 26°07' W 080°05'0 0.0
2020-Mar-30 11:55N 26°07' W 080°05'0 0.0
2020-Mar-30 10:28N 26°07' W 080°04'0 0.0
2020-Mar-30 08:25N 26°07' W 080°05'0 0.0
2020-Mar-30 07:58N 26°07' W 080°05'0 0.0
2020-Mar-30 05:58N 26°07' W 080°04'0 0.0
2020-Mar-30 05:28N 26°07' W 080°04'0 0.0
2020-Mar-30 04:28N 26°07' W 080°04'0 0.0
2020-Mar-30 01:58N 26°07' W 080°04'0 0.0
2020-Mar-30 01:28N 26°07' W 080°05'0 0.0
2020-Mar-29 22:28N 26°07' W 080°05'0 0.0
2020-Mar-29 21:28N 26°07' W 080°05'0 0.0
2020-Mar-29 20:28N 26°07' W 080°05'0 0.0
2020-Mar-29 19:28N 26°07' W 080°05'0 0.0
2020-Mar-29 18:58N 26°07' W 080°05'0 0.0
2020-Mar-29 17:58N 26°07' W 080°05'0 0.1
2020-Mar-29 17:28N 26°07' W 080°04'0 0.0
2020-Mar-29 16:28N 26°07' W 080°04'0 0.0
2020-Mar-29 14:28N 26°07' W 080°05'0 0.0
2020-Mar-29 13:28N 26°07' W 080°05'0 0.0
2020-Mar-29 12:58N 26°07' W 080°05'0 0.1
2020-Mar-29 12:28N 26°07' W 080°05'0 0.0
2020-Mar-29 11:28N 26°07' W 080°05'0 0.0
2020-Mar-29 08:58N 26°07' W 080°05'0 0.0
2020-Mar-29 03:28N 26°07' W 080°05'0 0.0
2020-Mar-29 02:28N 26°07' W 080°05'0 0.0
2020-Mar-28 23:58N 26°07' W 080°05'0 0.1
2020-Mar-28 23:28N 26°07' W 080°05'2 1.0
2020-Mar-28 21:01N 26°06' W 080°07'0 0.3
2020-Mar-28 19:28N 26°05' W 080°07'0 0.0
2020-Mar-28 15:28N 26°05' W 080°07'0 0.0
2020-Mar-28 12:28N 26°05' W 080°07'0 0.0
2020-Mar-28 11:58N 26°05' W 080°07'0 0.0
2020-Mar-28 11:28N 26°05' W 080°07'4 1.3
2020-Mar-28 08:28N 26°08' W 080°04'0 0.0
2020-Mar-28 06:28N 26°08' W 080°04'0 0.0
2020-Mar-28 05:58N 26°08' W 080°04'0 0.0
2020-Mar-28 02:58N 26°08' W 080°04'0 0.0
2020-Mar-28 02:28N 26°08' W 080°04'0 0.0
2020-Mar-28 01:58N 26°08' W 080°04'0 0.0
2020-Mar-28 00:58N 26°08' W 080°04'0 0.0
2020-Mar-27 22:28N 26°08' W 080°04'0 0.0
2020-Mar-27 21:28N 26°08' W 080°04'0 0.0
2020-Mar-27 16:58N 26°08' W 080°04'0 0.0
2020-Mar-27 16:28N 26°08' W 080°04'0 0.1
2020-Mar-27 15:58N 26°08' W 080°04'  
Track history (hours):
 
Tides and Currents Weather Stations Pressure Air Temp Water Temp Dewpoint Dewpoint Depression Visibility Wind Speed Wind Dir Waves Ship Positions

Adventure of The Seas

Operator: Royal Caribbean Cruises Ltd

Last reported at 2020-Apr-06 15:30 UTC. Time now 2020-Apr-06 18:18 UTC.
Position N 26°07' W 080°05'.

Type: Passenger vessel. MMSI: 311263000.

Date/timePositionNaut miles runAvg speedWind from/ knotsBaromVisibWave heightAir tempDewpointWater temp
2020-Apr-06 15:30N 26°07' W 080°05'0 0.0
2020-Apr-06 14:00N 26°07' W 080°05'0 0.0
2020-Apr-06 12:00N 26°07' W 080°05'0 0.0
2020-Apr-06 09:30N 26°07' W 080°05'0 0.0
2020-Apr-06 07:00N 26°07' W 080°05'0 0.1
2020-Apr-06 06:00N 26°07' W 080°05'0 0.1
2020-Apr-06 05:00N 26°07' W 080°05'0 0.0
2020-Apr-06 04:30N 26°07' W 080°05'0 0.0
2020-Apr-06 03:30N 26°07' W 080°05'0 0.0
2020-Apr-06 03:00N 26°07' W 080°05'0 0.0
2020-Apr-06 02:30N 26°07' W 080°05'0 0.0
2020-Apr-06 01:00N 26°07' W 080°05'3 0.6
2020-Apr-05 19:59N 26°05' W 080°07'0 0.0
2020-Apr-05 18:29N 26°05' W 080°07'0 0.0
2020-Apr-05 15:58N 26°05' W 080°07'0 0.0
2020-Apr-05 14:55N 26°05' W 080°07'0 0.0
2020-Apr-05 14:28N 26°05' W 080°07'0 0.0
2020-Apr-05 13:58N 26°05' W 080°07'0 0.0
2020-Apr-05 13:28N 26°05' W 080°07'0 0.0
2020-Apr-05 12:58N 26°05' W 080°07'3 1.6
2020-Apr-05 11:00N 26°06' W 080°04'1 0.5
2020-Apr-05 07:58N 26°07' W 080°05'0 0.0
2020-Apr-05 07:28N 26°07' W 080°05'0 0.0
2020-Apr-05 06:58N 26°07' W 080°05'0 0.0
2020-Apr-05 06:28N 26°07' W 080°05'0 0.0
2020-Apr-05 01:28N 26°07' W 080°05'0 0.0
2020-Apr-04 23:28N 26°07' W 080°05'0 0.1
2020-Apr-04 21:58N 26°07' W 080°05'0 0.0
2020-Apr-04 21:28N 26°07' W 080°05'0 0.0
2020-Apr-04 19:58N 26°07' W 080°05'0 0.0
2020-Apr-04 19:28N 26°07' W 080°05'0 0.0
2020-Apr-04 16:58N 26°07' W 080°05'0 0.0
2020-Apr-04 15:58N 26°07' W 080°05'0 0.0
2020-Apr-04 14:58N 26°07' W 080°05'0 0.0
2020-Apr-04 14:28N 26°07' W 080°05'0 0.0
2020-Apr-04 13:58N 26°07' W 080°05'0 0.0
2020-Apr-04 13:28N 26°07' W 080°05'0 0.0
2020-Apr-04 11:28N 26°07' W 080°05'0 0.0
2020-Apr-04 10:58N 26°07' W 080°05'0 0.0
2020-Apr-04 10:28N 26°07' W 080°05'0 0.0
2020-Apr-04 09:58N 26°07' W 080°05'0 0.0
2020-Apr-04 07:28N 26°07' W 080°05'0 0.0
2020-Apr-04 03:58N 26°07' W 080°05'0 0.0
2020-Apr-04 02:58N 26°07' W 080°05'0 0.0
2020-Apr-04 02:25N 26°07' W 080°05'0 0.0
2020-Apr-04 00:58N 26°07' W 080°05'0 0.0
2020-Apr-03 22:28N 26°07' W 080°05'0 0.0
2020-Apr-03 21:58N 26°07' W 080°05'0 0.0
2020-Apr-03 21:28N 26°07' W 080°05'0 0.0
2020-Apr-03 20:28N 26°07' W 080°05'0 0.0
2020-Apr-03 19:28N 26°07' W 080°05'0 0.0
2020-Apr-03 16:28N 26°07' W 080°05'0 0.0
2020-Apr-03 15:58N 26°07' W 080°05'0 0.0
2020-Apr-03 15:28N 26°07' W 080°05'0 0.0
2020-Apr-03 12:58N 26°07' W 080°05'0 0.0
2020-Apr-03 10:58N 26°07' W 080°05'0 0.0
2020-Apr-03 09:58N 26°07' W 080°05'0 0.0
2020-Apr-03 07:58N 26°07' W 080°05'0 0.0
2020-Apr-03 07:28N 26°07' W 080°05'0 0.0
2020-Apr-03 05:55N 26°07' W 080°05'0 0.0
2020-Apr-03 05:28N 26°07' W 080°05'0 0.0
2020-Apr-03 04:58N 26°07' W 080°05'0 0.0
2020-Apr-03 03:58N 26°07' W 080°05'0 0.0
2020-Apr-03 03:28N 26°07' W 080°05'0 0.0
2020-Apr-03 02:28N 26°07' W 080°05'1 0.2
2020-Apr-02 21:30N 26°08' W 080°05'1 1.0
2020-Apr-02 20:57N 26°08' W 080°04'0 0.0
2020-Apr-02 19:30N 26°08' W 080°04'0 0.0
2020-Apr-02 19:00N 26°08' W 080°04'0 0.0
2020-Apr-02 18:30N 26°08' W 080°04'0 0.0
2020-Apr-02 15:30N 26°08' W 080°04'0 0.0
2020-Apr-02 13:30N 26°08' W 080°04'0 0.0
2020-Apr-02 12:00N 26°08' W 080°04'0 0.0
2020-Apr-02 11:00N 26°08' W 080°04'0 0.0
2020-Apr-02 10:30N 26°08' W 080°04'0 0.0
2020-Apr-02 09:30N 26°08' W 080°04'0 0.0
2020-Apr-02 08:00N 26°08' W 080°04'0 0.0
2020-Apr-02 07:30N 26°08' W 080°04'0 0.0
2020-Apr-02 05:30N 26°08' W 080°04'0 0.0
2020-Apr-02 02:30N 26°08' W 080°04'0 0.0
2020-Apr-02 02:00N 26°08' W 080°04'0 0.0
2020-Apr-01 23:00N 26°08' W 080°04'0 0.0
2020-Apr-01 22:30N 26°08' W 080°04'0 0.0
2020-Apr-01 21:27N 26°08' W 080°04'0 0.1
2020-Apr-01 21:00N 26°08' W 080°04'2 0.9
2020-Apr-01 18:30N 26°08' W 080°02'3 6.1
2020-Apr-01 18:00N 26°09' W 079°59'1 1.3
2020-Apr-01 17:00N 26°08' W 079°57'1 1.1
2020-Apr-01 16:30N 26°08' W 079°57'14 2.3
2020-Apr-01 10:30N 26°12' W 079°42'15 5.8
2020-Apr-01 07:53N 26°26' W 079°35'610.0
2020-Apr-01 07:15N 26°20' W 079°35'22 2.4
2020-Mar-31 22:00N 26°07' W 079°54'8 8.3
2020-Mar-31 21:01N 26°07' W 080°04'1 1.6
2020-Mar-31 20:28N 26°07' W 080°05'0 0.0
2020-Mar-31 17:58N 26°07' W 080°05'0 0.0
2020-Mar-31 16:28N 26°07' W 080°05'0 0.1
2020-Mar-31 15:58N 26°07' W 080°05'0 0.0
2020-Mar-31 11:28N 26°07' W 080°05'0 0.0
2020-Mar-31 10:58N 26°07' W 080°04'0 0.0
2020-Mar-31 09:55N 26°07' W 080°05'0 0.1
2020-Mar-31 09:28N 26°07' W 080°05'0 0.0
2020-Mar-31 08:28N 26°07' W 080°05'0 0.0
2020-Mar-31 07:28N 26°07' W 080°05'0 0.0
2020-Mar-31 06:28N 26°07' W 080°05'0 0.0
2020-Mar-31 04:58N 26°07' W 080°05'0 0.0
2020-Mar-31 04:28N 26°07' W 080°05'0 0.0
2020-Mar-31 03:28N 26°07' W 080°05'0 0.0
2020-Mar-31 00:58N 26°07' W 080°05'0 0.0
2020-Mar-30 23:28N 26°07' W 080°05'0 0.0
2020-Mar-30 21:28N 26°07' W 080°04'0 0.1
2020-Mar-30 20:58N 26°07' W 080°05'0 0.0
2020-Mar-30 17:28N 26°07' W 080°05'0 0.0
2020-Mar-30 16:25N 26°07' W 080°05'0 0.0
2020-Mar-30 14:28N 26°07' W 080°05'0 0.0
2020-Mar-30 13:58N 26°07' W 080°05'0 0.0
2020-Mar-30 11:55N 26°07' W 080°05'0 0.0
2020-Mar-30 10:28N 26°07' W 080°04'0 0.0
2020-Mar-30 08:25N 26°07' W 080°05'0 0.0
2020-Mar-30 07:58N 26°07' W 080°05'0 0.0
2020-Mar-30 05:58N 26°07' W 080°04'0 0.0
2020-Mar-30 05:28N 26°07' W 080°04'0 0.0
2020-Mar-30 04:28N 26°07' W 080°04'0 0.0
2020-Mar-30 01:58N 26°07' W 080°04'0 0.0
2020-Mar-30 01:28N 26°07' W 080°05'0 0.0
2020-Mar-29 22:28N 26°07' W 080°05'0 0.0
2020-Mar-29 21:28N 26°07' W 080°05'0 0.0
2020-Mar-29 20:28N 26°07' W 080°05'0 0.0
2020-Mar-29 19:28N 26°07' W 080°05'0 0.0
2020-Mar-29 18:58N 26°07' W 080°05'0 0.0
2020-Mar-29 17:58N 26°07' W 080°05'0 0.1
2020-Mar-29 17:28N 26°07' W 080°04'0 0.0
2020-Mar-29 16:28N 26°07' W 080°04'0 0.0
2020-Mar-29 14:28N 26°07' W 080°05'0 0.0
2020-Mar-29 13:28N 26°07' W 080°05'0 0.0
2020-Mar-29 12:58N 26°07' W 080°05'0 0.1
2020-Mar-29 12:28N 26°07' W 080°05'0 0.0
2020-Mar-29 11:28N 26°07' W 080°05'0 0.0
2020-Mar-29 08:58N 26°07' W 080°05'0 0.0
2020-Mar-29 03:28N 26°07' W 080°05'0 0.0
2020-Mar-29 02:28N 26°07' W 080°05'0 0.0
2020-Mar-28 23:58N 26°07' W 080°05'0 0.1
2020-Mar-28 23:28N 26°07' W 080°05'2 1.0
2020-Mar-28 21:01N 26°06' W 080°07'0 0.3
2020-Mar-28 19:28N 26°05' W 080°07'0 0.0
2020-Mar-28 15:28N 26°05' W 080°07'0 0.0
2020-Mar-28 12:28N 26°05' W 080°07'0 0.0
2020-Mar-28 11:58N 26°05' W 080°07'0 0.0
2020-Mar-28 11:28N 26°05' W 080°07'4 1.3
2020-Mar-28 08:28N 26°08' W 080°04'0 0.0
2020-Mar-28 06:28N 26°08' W 080°04'0 0.0
2020-Mar-28 05:58N 26°08' W 080°04'0 0.0
2020-Mar-28 02:58N 26°08' W 080°04'0 0.0
2020-Mar-28 02:28N 26°08' W 080°04'0 0.0
2020-Mar-28 01:58N 26°08' W 080°04'0 0.0
2020-Mar-28 00:58N 26°08' W 080°04'0 0.0
2020-Mar-27 22:28N 26°08' W 080°04'0 0.0
2020-Mar-27 21:28N 26°08' W 080°04'0 0.0
2020-Mar-27 16:58N 26°08' W 080°04'0 0.0
2020-Mar-27 16:28N 26°08' W 080°04'0 0.1
2020-Mar-27 15:58N 26°08' W 080°04'  

Dump ship's entire track history